Time;durP1;ratioP1;P1;durP2;ratioP2;P2;SDS_P1;SDS_P2;PMS_P1;PMS_P2;Temp;Humidity;BMP_temperature;BMP_pressure;BME280_temperature;BME280_humidity;BME280_pressure;Samples;Min_cycle;Max_cycle;Signal;HPM_P1;HPM_P2
2023/04/07 00:01:47;;;;;;;11.52;7.90;;;7.80;99.90;;;;;;5026334;28;20036;-82
2023/04/07 00:04:13;;;;;;;11.80;9.20;;;7.90;99.90;;;;;;5022272;28;20068;-82
2023/04/07 00:06:39;;;;;;;11.23;8.13;;;7.90;99.90;;;;;;5009047;28;20526;-82
2023/04/07 00:09:05;;;;;;;12.30;9.85;;;7.80;99.90;;;;;;5017340;28;20036;-82
2023/04/07 00:11:30;;;;;;;13.77;10.00;;;7.90;99.90;;;;;;5017466;28;20046;-82
2023/04/07 00:13:56;;;;;;;14.63;10.63;;;7.80;99.90;;;;;;5031376;28;20033;-82
2023/04/07 00:16:22;;;;;;;11.50;7.80;;;7.90;99.90;;;;;;5008632;28;20034;-82
2023/04/07 00:18:47;;;;;;;13.80;10.23;;;7.90;99.90;;;;;;5032840;28;20508;-83
2023/04/07 00:21:13;;;;;;;12.70;8.88;;;7.90;99.90;;;;;;5021779;28;20033;-83
2023/04/07 00:23:38;;;;;;;17.50;10.55;;;7.90;99.90;;;;;;5032287;28;20067;-82
2023/04/07 00:26:04;;;;;;;12.77;9.68;;;7.90;99.90;;;;;;5036234;28;20036;-83
2023/04/07 00:28:30;;;;;;;11.50;7.22;;;7.80;99.90;;;;;;5024143;28;20033;-82
2023/04/07 00:30:55;;;;;;;11.73;9.35;;;7.90;99.90;;;;;;5021725;28;20084;-82
2023/04/07 00:33:21;;;;;;;11.05;7.78;;;7.90;99.90;;;;;;5031926;28;20697;-82
2023/04/07 00:35:46;;;;;;;11.20;8.05;;;8.00;99.90;;;;;;5008680;28;20036;-82
2023/04/07 00:38:12;;;;;;;11.25;8.23;;;8.00;99.90;;;;;;5028575;28;20026;-81
2023/04/07 00:40:38;;;;;;;15.35;11.82;;;7.90;99.90;;;;;;5037688;28;20045;-82
2023/04/07 00:43:03;;;;;;;10.43;7.68;;;7.90;99.90;;;;;;5005784;28;20116;-82
2023/04/07 00:45:29;;;;;;;13.23;10.55;;;7.90;99.90;;;;;;5009078;28;20379;-82
2023/04/07 00:47:57;;;;;;;10.93;8.07;;;7.90;99.90;;;;;;5006146;28;20162;-83
2023/04/07 00:50:22;;;;;;;10.63;7.68;;;8.00;99.90;;;;;;5010667;28;20041;-81
2023/04/07 00:52:48;;;;;;;12.82;9.35;;;8.00;99.90;;;;;;5009945;28;20034;-82
2023/04/07 00:55:13;;;;;;;11.40;8.38;;;8.00;99.90;;;;;;5023602;28;20219;-82
2023/04/07 00:57:39;;;;;;;12.02;9.13;;;8.00;99.90;;;;;;5009626;28;20036;-83
2023/04/07 01:00:05;;;;;;;13.75;9.27;;;8.00;99.90;;;;;;5015114;28;20452;-83
2023/04/07 01:02:41;;;;;;;14.07;10.88;;;8.00;99.90;;;;;;5011328;28;20141;-82
2023/04/07 01:05:16;;;;;;;;;;;8.00;99.90;;;;;;5015826;28;20084;-82
2023/04/07 01:08:07;;;;;;;19.25;11.23;;;8.00;99.90;;;;;;5044800;28;19920;-82
2023/04/07 01:10:51;;;;;;;13.52;9.85;;;7.90;99.90;;;;;;5008245;28;20513;-83
2023/04/07 01:13:42;;;;;;;13.88;9.93;;;8.00;99.90;;;;;;5034097;28;20029;-84
2023/04/07 01:16:10;;;;;;;13.05;8.85;;;7.90;99.90;;;;;;5025182;28;20504;-84
2023/04/07 01:18:36;;;;;;;18.10;13.00;;;8.00;99.90;;;;;;5015155;28;20037;-82
2023/04/07 01:21:06;;;;;;;16.73;12.30;;;8.00;99.90;;;;;;5014040;28;20042;-83
2023/04/07 01:23:49;;;;;;;11.07;8.95;;;8.00;99.90;;;;;;5015166;28;20053;-84
2023/04/07 01:26:21;;;;;;;12.48;9.75;;;8.10;99.90;;;;;;5032618;28;20603;-83
2023/04/07 01:29:10;;;;;;;18.27;12.07;;;8.10;99.90;;;;;;5040058;28;20037;-83
2023/04/07 01:31:36;;;;;;;15.68;12.52;;;8.10;99.90;;;;;;5014063;28;20025;-83
2023/04/07 01:34:02;;;;;;;17.17;12.65;;;8.00;99.90;;;;;;4990061;28;20561;-83
2023/04/07 01:36:28;;;;;;;16.70;11.07;;;8.10;99.90;;;;;;5013535;28;20117;-83
2023/04/07 01:38:54;;;;;;;20.50;14.63;;;8.10;99.90;;;;;;5033746;28;20037;-82
2023/04/07 01:41:19;;;;;;;15.65;11.20;;;8.00;99.90;;;;;;5032447;28;20054;-83
2023/04/07 01:43:45;;;;;;;23.75;15.63;;;8.10;99.90;;;;;;5035998;28;20035;-82
2023/04/07 01:46:10;;;;;;;22.17;16.45;;;8.10;99.90;;;;;;5027822;28;20033;-83
2023/04/07 01:48:36;;;;;;;29.25;19.60;;;8.00;99.90;;;;;;5011557;28;20161;-82
2023/04/07 01:51:03;;;;;;;24.95;16.25;;;7.90;99.90;;;;;;5020998;28;20098;-83
2023/04/07 01:53:29;;;;;;;24.60;17.35;;;7.90;99.90;;;;;;5028494;28;20724;-82
2023/04/07 01:55:54;;;;;;;28.33;18.95;;;7.90;99.90;;;;;;5022900;28;20033;-82
2023/04/07 01:58:20;;;;;;;25.33;18.50;;;7.90;99.90;;;;;;5018530;28;20111;-83
2023/04/07 02:00:46;;;;;;;19.95;13.75;;;7.90;99.90;;;;;;5024404;28;20037;-83
2023/04/07 02:03:22;;;;;;;15.13;10.45;;;7.90;99.90;;;;;;5037496;28;20026;-82
2023/04/07 02:05:49;;;;;;;13.73;10.30;;;7.90;99.90;;;;;;5014830;28;20037;-82
2023/04/07 02:08:16;;;;;;;21.17;16.33;;;8.00;99.90;;;;;;5044439;28;20041;-83
2023/04/07 02:10:42;;;;;;;14.57;9.90;;;8.00;99.90;;;;;;5012147;28;20049;-83
2023/04/07 02:13:07;;;;;;;18.27;13.35;;;7.90;99.90;;;;;;5012034;28;20026;-82
2023/04/07 02:15:33;;;;;;;21.02;14.30;;;7.90;99.90;;;;;;5033310;28;20497;-82
2023/04/07 02:17:59;;;;;;;17.10;12.88;;;7.90;99.90;;;;;;5031105;28;20025;-83
2023/04/07 02:20:25;;;;;;;15.35;11.10;;;8.00;99.90;;;;;;5024698;28;20021;-82
2023/04/07 02:22:50;;;;;;;19.02;13.23;;;8.10;99.90;;;;;;5006723;28;20121;-82
2023/04/07 02:25:26;;;;;;;22.50;16.02;;;8.00;99.90;;;;;;5028609;28;20457;-83
2023/04/07 02:27:52;;;;;;;18.98;13.93;;;8.00;99.90;;;;;;5025768;28;20437;-82
2023/04/07 02:30:18;;;;;;;11.82;8.50;;;8.00;99.90;;;;;;5003693;28;20102;-83
2023/04/07 02:32:44;;;;;;;16.15;10.88;;;8.00;99.90;;;;;;5041175;28;20057;-82
2023/04/07 02:35:10;;;;;;;12.82;9.30;;;8.20;99.90;;;;;;5019250;28;20038;-82
2023/04/07 02:37:36;;;;;;;20.10;13.60;;;8.10;99.90;;;;;;5036870;28;20117;-82
2023/04/07 02:40:03;;;;;;;16.00;11.15;;;8.10;99.90;;;;;;5029106;28;20145;-82
2023/04/07 02:42:29;;;;;;;17.02;11.80;;;8.10;99.90;;;;;;5011878;28;20041;-81
2023/04/07 02:44:55;;;;;;;19.42;14.55;;;8.10;99.90;;;;;;5022117;28;20037;-82
2023/04/07 02:47:20;;;;;;;16.52;10.98;;;8.00;99.90;;;;;;5017081;28;20101;-77
2023/04/07 02:49:46;;;;;;;19.85;14.43;;;8.10;99.90;;;;;;5004147;28;20053;-76
2023/04/07 02:52:12;;;;;;;16.10;11.27;;;8.00;99.90;;;;;;5013488;28;20033;-76
2023/04/07 02:54:37;;;;;;;25.30;16.40;;;8.00;99.90;;;;;;5014517;28;20583;-76
2023/04/07 02:57:03;;;;;;;25.38;17.40;;;8.00;99.90;;;;;;5001838;28;20033;-77
2023/04/07 02:59:28;;;;;;;22.58;15.32;;;8.00;99.90;;;;;;5014735;28;20038;-76
2023/04/07 03:01:54;;;;;;;29.05;18.42;;;8.00;99.90;;;;;;5000026;28;20029;-81
2023/04/07 03:04:20;;;;;;;16.42;11.98;;;8.00;99.90;;;;;;5006047;28;20091;-82
2023/04/07 03:06:46;;;;;;;19.25;12.98;;;8.00;99.90;;;;;;5015784;28;20660;-82
2023/04/07 03:09:12;;;;;;;22.40;15.60;;;8.00;99.90;;;;;;5001768;28;20034;-82
2023/04/07 03:11:37;;;;;;;32.05;19.23;;;8.00;99.90;;;;;;5028406;28;20037;-82
2023/04/07 03:14:03;;;;;;;22.85;15.32;;;8.10;99.90;;;;;;5014892;28;20053;-83
2023/04/07 03:16:28;;;;;;;35.10;20.88;;;8.00;99.90;;;;;;5032535;28;20041;-82
2023/04/07 03:18:54;;;;;;;35.90;21.38;;;8.00;99.90;;;;;;5032148;28;20470;-82
2023/04/07 03:21:20;;;;;;;36.47;21.80;;;8.10;99.90;;;;;;5002035;28;20132;-82
2023/04/07 03:23:46;;;;;;;38.55;22.48;;;8.00;99.90;;;;;;5012632;28;20029;-82
2023/04/07 03:26:11;;;;;;;40.45;22.85;;;8.10;99.90;;;;;;4999553;28;20417;-82
2023/04/07 03:28:37;;;;;;;43.22;24.13;;;8.10;99.90;;;;;;5021088;28;20108;-83
2023/04/07 03:31:02;;;;;;;39.80;23.10;;;8.10;99.90;;;;;;4992953;28;20034;-83
2023/04/07 03:33:28;;;;;;;39.63;23.20;;;8.10;99.90;;;;;;5006586;28;20037;-82
2023/04/07 03:35:53;;;;;;;29.30;15.15;;;8.10;99.90;;;;;;5023429;28;20092;-81
2023/04/07 03:38:20;;;;;;;39.95;20.58;;;8.10;99.90;;;;;;5004583;28;20061;-81
2023/04/07 03:40:45;;;;;;;34.80;19.95;;;8.10;99.90;;;;;;5017450;28;20033;-82
2023/04/07 03:43:14;;;;;;;41.97;21.60;;;8.20;99.90;;;;;;5006523;28;20106;-81
2023/04/07 03:45:40;;;;;;;33.65;18.45;;;8.20;99.90;;;;;;5001268;28;20026;-82
2023/04/07 03:48:09;;;;;;;48.60;23.80;;;8.20;99.90;;;;;;5011935;28;20037;-81
2023/04/07 03:50:35;;;;;;;42.80;21.58;;;8.20;99.90;;;;;;5003556;28;20402;-82
2023/04/07 03:53:00;;;;;;;35.17;19.20;;;8.20;99.90;;;;;;5020780;28;20037;-82
2023/04/07 03:55:26;;;;;;;41.67;22.83;;;8.20;99.90;;;;;;5017923;28;20140;-82
2023/04/07 03:57:52;;;;;;;35.53;18.90;;;8.20;99.90;;;;;;5020848;28;20038;-82
2023/04/07 04:00:17;;;;;;;51.20;23.75;;;8.20;99.90;;;;;;5011654;28;20034;-81
2023/04/07 04:02:43;;;;;;;39.20;19.92;;;8.20;99.90;;;;;;5005138;28;20045;-81
2023/04/07 04:05:08;;;;;;;38.38;20.83;;;8.30;99.90;;;;;;5016680;28;20029;-82
2023/04/07 04:07:34;;;;;;;40.97;21.60;;;8.20;99.90;;;;;;5010757;28;20030;-83
2023/04/07 04:10:00;;;;;;;36.50;19.65;;;8.30;99.90;;;;;;5004729;28;20061;-83
2023/04/07 04:12:26;;;;;;;42.30;20.92;;;8.30;99.90;;;;;;5002567;28;20679;-82
2023/04/07 04:14:51;;;;;;;36.35;19.00;;;8.30;99.90;;;;;;5013629;28;20030;-84
2023/04/07 04:17:17;;;;;;;36.72;18.30;;;8.20;99.90;;;;;;5001587;28;20120;-82
2023/04/07 04:19:42;;;;;;;41.38;19.73;;;8.30;99.90;;;;;;5003717;28;20038;-83
2023/04/07 04:22:08;;;;;;;40.47;18.88;;;8.20;99.90;;;;;;4999258;28;20029;-82
2023/04/07 04:24:34;;;;;;;29.92;14.18;;;8.30;99.90;;;;;;5002795;28;20026;-83
2023/04/07 04:27:00;;;;;;;38.95;18.58;;;8.30;99.90;;;;;;5003897;28;20120;-83
2023/04/07 04:29:26;;;;;;;29.70;16.15;;;8.30;99.90;;;;;;5002246;28;20028;-81
2023/04/07 04:31:51;;;;;;;28.02;14.85;;;8.30;99.90;;;;;;5014180;28;20034;-83
2023/04/07 04:34:17;;;;;;;35.30;18.40;;;8.20;99.90;;;;;;5018143;28;20045;-83
2023/04/07 04:36:43;;;;;;;27.83;15.23;;;8.20;99.90;;;;;;5014538;28;20494;-82
2023/04/07 04:39:08;;;;;;;36.45;18.10;;;8.30;99.90;;;;;;5018422;28;20073;-83
2023/04/07 04:41:34;;;;;;;33.10;16.45;;;8.30;99.90;;;;;;5018132;28;20541;-83
2023/04/07 04:43:59;;;;;;;33.83;16.80;;;8.30;99.90;;;;;;4994710;28;20041;-83
2023/04/07 04:46:25;;;;;;;34.90;18.23;;;8.30;99.90;;;;;;5019241;28;20482;-83
2023/04/07 04:48:52;;;;;;;37.72;19.02;;;8.30;99.90;;;;;;5011483;28;20036;-83
2023/04/07 04:51:18;;;;;;;36.97;18.67;;;8.30;99.90;;;;;;4997710;28;20033;-84
2023/04/07 04:53:44;;;;;;;37.03;17.27;;;8.30;99.90;;;;;;5001029;28;20041;-83
2023/04/07 04:56:10;;;;;;;39.22;19.33;;;8.30;99.90;;;;;;5015997;28;20037;-83
2023/04/07 04:58:36;;;;;;;30.05;15.80;;;8.30;99.90;;;;;;5000655;28;20421;-83
2023/04/07 05:01:01;;;;;;;27.70;14.38;;;8.30;99.90;;;;;;5017286;28;20111;-84
2023/04/07 05:03:27;;;;;;;34.03;15.75;;;8.30;99.90;;;;;;5000616;28;20041;-83
2023/04/07 05:05:53;;;;;;;32.88;16.58;;;8.30;99.90;;;;;;5014179;28;21002;-82
2023/04/07 05:08:18;;;;;;;39.55;18.38;;;8.40;99.90;;;;;;5012925;28;20057;-82
2023/04/07 05:10:45;;;;;;;37.25;16.73;;;8.30;99.90;;;;;;5016343;28;22100;-82
2023/04/07 05:13:11;;;;;;;37.80;18.88;;;8.30;99.90;;;;;;4999519;28;20037;-83
2023/04/07 05:15:36;;;;;;;27.83;14.05;;;8.30;99.90;;;;;;5002126;28;20549;-82
2023/04/07 05:18:02;;;;;;;39.13;18.95;;;8.30;99.90;;;;;;5006830;28;20076;-83
2023/04/07 05:20:28;;;;;;;33.53;16.00;;;8.30;99.90;;;;;;5013663;28;20030;-82
2023/04/07 05:22:53;;;;;;;32.78;16.05;;;8.30;99.90;;;;;;5008017;28;20038;-82
2023/04/07 05:25:19;;;;;;;39.17;17.73;;;8.30;99.90;;;;;;5011486;28;20054;-83
2023/04/07 05:27:45;;;;;;;29.40;14.63;;;8.30;99.90;;;;;;5013633;28;20137;-82
2023/04/07 05:30:11;;;;;;;33.42;16.48;;;8.30;99.90;;;;;;5006860;28;20732;-83
2023/04/07 05:32:37;;;;;;;30.98;17.42;;;8.30;99.90;;;;;;5023158;28;20094;-82
2023/04/07 05:35:03;;;;;;;34.75;18.45;;;8.30;99.90;;;;;;5022157;28;20485;-83
2023/04/07 05:37:28;;;;;;;33.88;17.13;;;8.30;99.90;;;;;;5006736;28;20029;-83
2023/04/07 05:39:54;;;;;;;29.25;13.95;;;8.30;99.90;;;;;;5020884;28;20029;-82
2023/04/07 05:42:19;;;;;;;31.73;15.57;;;8.30;99.90;;;;;;5031739;28;20406;-82
2023/04/07 05:44:45;;;;;;;29.65;15.55;;;8.30;99.90;;;;;;5007433;28;20452;-83
2023/04/07 05:47:11;;;;;;;28.00;15.52;;;8.30;99.90;;;;;;5000662;28;20683;-83
2023/04/07 05:49:36;;;;;;;34.53;18.48;;;8.30;99.90;;;;;;5001905;28;20084;-83
2023/04/07 05:52:02;;;;;;;31.17;17.45;;;8.10;99.90;;;;;;4993897;28;20486;-83
2023/04/07 05:54:28;;;;;;;39.33;18.77;;;8.20;99.90;;;;;;5021603;28;20490;-83
2023/04/07 05:56:55;;;;;;;34.03;18.40;;;8.20;99.90;;;;;;5006748;28;20063;-82
2023/04/07 05:59:20;;;;;;;36.90;17.95;;;8.20;99.90;;;;;;5008672;28;20038;-84
2023/04/07 06:01:46;;;;;;;33.65;16.08;;;8.20;99.90;;;;;;5017816;28;20489;-84
2023/04/07 06:04:11;;;;;;;32.67;16.35;;;8.20;99.90;;;;;;4997712;28;20045;-84
2023/04/07 06:06:37;;;;;;;26.50;14.13;;;8.20;99.90;;;;;;5018560;28;20033;-83
2023/04/07 06:09:03;;;;;;;26.05;13.27;;;8.20;99.90;;;;;;5008894;28;20138;-83
2023/04/07 06:11:28;;;;;;;27.30;12.68;;;8.30;99.90;;;;;;5020995;28;20040;-83
2023/04/07 06:13:54;;;;;;;24.33;11.63;;;8.30;99.90;;;;;;5038730;28;20033;-84
2023/04/07 06:16:19;;;;;;;23.45;11.48;;;8.30;99.90;;;;;;5023059;28;20057;-84
2023/04/07 06:18:45;;;;;;;20.83;11.50;;;8.30;99.90;;;;;;5004449;28;20408;-85
2023/04/07 06:21:11;;;;;;;19.45;10.30;;;8.40;99.90;;;;;;5010587;28;20101;-84
2023/04/07 06:23:36;;;;;;;23.73;12.02;;;8.40;99.90;;;;;;5004511;28;20470;-83
2023/04/07 06:26:02;;;;;;;25.35;10.80;;;8.50;99.90;;;;;;5007808;28;20410;-83
2023/04/07 06:28:28;;;;;;;17.42;9.48;;;8.50;99.90;;;;;;5017200;28;20022;-83
2023/04/07 06:30:53;;;;;;;20.90;11.63;;;8.50;99.90;;;;;;5017533;28;20080;-83
2023/04/07 06:33:22;;;;;;;22.80;11.02;;;8.60;99.90;;;;;;5018324;28;20033;-83
2023/04/07 06:35:48;;;;;;;21.92;11.60;;;8.60;99.90;;;;;;5029035;28;20056;-82
2023/04/07 06:38:13;;;;;;;23.25;11.90;;;8.70;99.90;;;;;;5023630;28;20033;-83
2023/04/07 06:40:39;;;;;;;19.05;10.20;;;8.70;99.90;;;;;;5002317;28;20053;-84
2023/04/07 06:43:05;;;;;;;21.80;11.88;;;8.70;99.90;;;;;;5003723;28;20033;-84
2023/04/07 06:45:31;;;;;;;21.40;10.93;;;8.70;99.90;;;;;;5008407;28;20041;-83
2023/04/07 06:47:57;;;;;;;18.77;10.27;;;8.70;99.90;;;;;;5005547;28;20056;-84
2023/04/07 06:50:22;;;;;;;21.60;10.73;;;8.80;99.90;;;;;;5006712;28;20104;-83
2023/04/07 06:52:48;;;;;;;22.98;10.88;;;8.80;99.90;;;;;;5007800;28;20033;-84
2023/04/07 06:55:14;;;;;;;18.48;11.27;;;8.80;99.90;;;;;;5020582;28;20041;-83
2023/04/07 06:57:40;;;;;;;19.77;9.90;;;8.70;99.90;;;;;;5007818;28;20029;-83
2023/04/07 07:00:06;;;;;;;16.70;9.57;;;8.80;99.90;;;;;;5015322;28;20373;-83
2023/04/07 07:02:32;;;;;;;23.33;11.20;;;8.80;99.90;;;;;;5006404;28;20042;-83
2023/04/07 07:04:58;;;;;;;14.07;8.50;;;8.90;99.90;;;;;;5015633;28;20047;-82
2023/04/07 07:07:24;;;;;;;12.43;7.18;;;8.80;99.90;;;;;;5007590;28;20052;-83
2023/04/07 07:09:50;;;;;;;20.83;10.93;;;8.80;99.90;;;;;;5027611;28;20520;-83
2023/04/07 07:12:16;;;;;;;16.83;8.50;;;8.90;99.90;;;;;;5006497;28;20037;-84
2023/04/07 07:14:42;;;;;;;22.50;9.77;;;8.80;99.90;;;;;;5016774;28;20034;-83
2023/04/07 07:17:08;;;;;;;22.73;10.15;;;8.90;99.90;;;;;;4999879;28;20512;-83
2023/04/07 07:19:34;;;;;;;18.75;10.30;;;8.80;99.90;;;;;;5004678;28;20094;-82
2023/04/07 07:22:02;;;;;;;15.10;8.27;;;8.80;99.90;;;;;;4994275;28;20040;-83
2023/04/07 07:24:28;;;;;;;14.23;7.75;;;8.80;99.90;;;;;;5010755;28;20576;-83
2023/04/07 07:26:55;;;;;;;17.48;9.05;;;8.90;99.90;;;;;;5025640;28;20038;-83
2023/04/07 07:29:21;;;;;;;20.92;10.10;;;8.90;99.90;;;;;;4991559;28;20033;-82
2023/04/07 07:31:46;;;;;;;19.40;9.57;;;8.90;99.90;;;;;;5016242;28;20049;-83
2023/04/07 07:34:12;;;;;;;18.38;9.27;;;9.00;99.90;;;;;;5002929;28;20038;-84
2023/04/07 07:36:37;;;;;;;20.50;10.32;;;9.00;99.90;;;;;;5020717;28;20040;-83
2023/04/07 07:39:04;;;;;;;20.67;10.23;;;9.00;99.90;;;;;;5013688;28;20091;-83
2023/04/07 07:41:30;;;;;;;16.75;8.70;;;9.10;99.90;;;;;;5017842;28;20068;-83
2023/04/07 07:43:55;;;;;;;21.38;9.55;;;9.20;99.90;;;;;;5021040;28;20033;-83
2023/04/07 07:46:23;;;;;;;14.15;7.82;;;9.10;99.90;;;;;;5003329;28;20044;-82
2023/04/07 07:48:49;;;;;;;23.25;12.45;;;9.10;99.90;;;;;;4999580;28;20391;-81
2023/04/07 07:51:14;;;;;;;15.35;7.75;;;9.10;99.90;;;;;;5018037;28;20842;-82
2023/04/07 07:53:40;;;;;;;19.58;10.05;;;9.10;99.90;;;;;;5015812;28;20034;-82
2023/04/07 07:56:05;;;;;;;13.30;8.15;;;9.20;99.90;;;;;;5019358;28;20032;-82
2023/04/07 07:58:31;;;;;;;12.80;7.57;;;9.20;99.90;;;;;;5006279;28;20017;-83
2023/04/07 08:00:57;;;;;;;12.85;6.38;;;9.20;99.90;;;;;;5022890;28;20387;-80
2023/04/07 08:03:23;;;;;;;20.02;8.50;;;9.10;99.90;;;;;;5000890;28;20086;-82
2023/04/07 08:05:49;;;;;;;23.02;10.25;;;9.20;99.90;;;;;;5001272;28;20037;-81
2023/04/07 08:08:15;;;;;;;22.55;10.52;;;9.20;99.90;;;;;;5005815;28;20053;-82
2023/04/07 08:10:40;;;;;;;19.42;9.63;;;9.30;99.90;;;;;;5016470;28;20490;-78
2023/04/07 08:13:06;;;;;;;17.80;8.70;;;9.30;99.90;;;;;;5011211;28;20030;-79
2023/04/07 08:15:32;;;;;;;17.88;9.48;;;9.40;99.90;;;;;;5004116;28;20033;-79
2023/04/07 08:17:58;;;;;;;17.02;9.32;;;9.40;99.90;;;;;;5001618;28;20030;-78
2023/04/07 08:20:25;;;;;;;16.17;9.57;;;9.50;99.90;;;;;;5000278;28;20103;-78
2023/04/07 08:22:51;;;;;;;17.90;8.55;;;9.50;99.90;;;;;;4994046;28;20045;-78
2023/04/07 08:25:16;;;;;;;15.60;8.15;;;9.60;99.90;;;;;;5011513;28;20029;-78
2023/04/07 08:27:42;;;;;;;15.90;7.55;;;9.60;99.90;;;;;;5002704;28;20112;-79
2023/04/07 08:30:08;;;;;;;20.83;8.73;;;9.60;99.90;;;;;;5018002;28;20556;-79
2023/04/07 08:32:40;;;;;;;16.33;8.88;;;9.60;99.90;;;;;;4997911;28;20030;-79
2023/04/07 08:35:06;;;;;;;21.35;10.27;;;9.70;99.90;;;;;;5001319;28;20529;-79
2023/04/07 08:37:32;;;;;;;27.50;14.20;;;9.70;99.90;;;;;;5004312;28;20033;-79
2023/04/07 08:39:59;;;;;;;30.10;14.25;;;9.80;99.90;;;;;;5003419;28;20034;-80
2023/04/07 08:42:27;;;;;;;33.17;15.23;;;9.80;99.90;;;;;;5002856;28;20040;-80
2023/04/07 08:44:54;;;;;;;24.15;11.27;;;9.80;99.90;;;;;;5003120;28;20561;-80
2023/04/07 08:47:20;;;;;;;28.45;11.27;;;9.80;99.90;;;;;;5014196;28;20049;-80
2023/04/07 08:49:45;;;;;;;20.73;8.00;;;9.70;99.90;;;;;;5005126;28;20029;-79
2023/04/07 08:52:11;;;;;;;18.50;9.02;;;9.70;99.90;;;;;;5010987;28;20131;-80
2023/04/07 08:54:37;;;;;;;20.55;10.27;;;9.70;99.90;;;;;;5004671;28;20030;-80
2023/04/07 08:57:02;;;;;;;21.42;10.00;;;9.70;99.90;;;;;;5008154;28;20123;-80
2023/04/07 08:59:28;;;;;;;29.63;12.23;;;9.70;99.90;;;;;;5007326;28;20034;-82
2023/04/07 09:01:54;;;;;;;18.30;9.68;;;9.70;99.90;;;;;;4999558;28;20409;-80
2023/04/07 09:04:21;;;;;;;21.15;10.48;;;9.70;99.90;;;;;;5007932;28;20041;-85
2023/04/07 09:06:48;;;;;;;24.10;10.77;;;9.80;99.90;;;;;;5027820;28;20036;-80
2023/04/07 09:09:13;;;;;;;15.10;8.95;;;9.90;99.90;;;;;;5020750;28;20033;-83
2023/04/07 09:11:39;;;;;;;17.75;9.27;;;9.90;99.90;;;;;;5017893;28;20203;-84
2023/04/07 09:14:05;;;;;;;23.75;10.23;;;9.90;99.90;;;;;;5016639;28;20812;-83
2023/04/07 09:16:31;;;;;;;18.05;8.95;;;10.00;99.90;;;;;;5004030;28;20026;-83
2023/04/07 09:18:57;;;;;;;17.88;11.10;;;10.00;99.90;;;;;;5005533;28;20438;-83
2023/04/07 09:21:22;;;;;;;22.15;9.80;;;10.00;99.90;;;;;;5016857;28;20387;-83
2023/04/07 09:23:48;;;;;;;17.35;9.93;;;9.90;99.90;;;;;;5006548;28;20064;-80
2023/04/07 09:26:17;;;;;;;16.40;9.63;;;9.90;99.90;;;;;;5022592;28;20086;-79
2023/04/07 09:28:43;;;;;;;18.10;9.80;;;9.90;99.90;;;;;;5020636;28;20030;-79
2023/04/07 09:31:09;;;;;;;18.30;8.90;;;10.00;99.90;;;;;;5033022;28;20092;-79
2023/04/07 09:33:35;;;;;;;19.33;8.93;;;10.00;99.90;;;;;;5007023;28;20421;-79
2023/04/07 09:36:05;;;;;;;20.10;10.02;;;10.00;99.90;;;;;;5031080;28;20029;-79
2023/04/07 09:38:38;;;;;;;16.38;9.07;;;10.10;99.90;;;;;;5002549;28;20636;-80
2023/04/07 09:41:11;;;;;;;21.25;10.40;;;10.10;99.90;;;;;;4989956;28;20489;-81
2023/04/07 09:43:39;;;;;;;18.95;10.50;;;10.10;99.90;;;;;;4999161;28;20371;-80
2023/04/07 09:46:09;;;;;;;23.55;11.43;;;10.10;99.90;;;;;;4995324;28;20026;-80
2023/04/07 09:48:35;;;;;;;22.45;11.73;;;10.10;99.90;;;;;;4985395;28;20026;-79
2023/04/07 09:51:08;;;;;;;19.00;10.43;;;10.10;99.90;;;;;;4991690;28;20033;-80
2023/04/07 09:53:46;;;;;;;22.55;10.48;;;10.00;99.90;;;;;;5000193;28;20032;-79
2023/04/07 09:56:16;;;;;;;16.42;9.27;;;10.00;99.90;;;;;;5006875;28;20894;-79
2023/04/07 09:58:43;;;;;;;18.85;10.40;;;10.00;99.90;;;;;;5031399;28;20508;-80
2023/04/07 10:01:09;;;;;;;19.02;10.20;;;10.00;99.90;;;;;;5012745;28;20083;-79
2023/04/07 10:03:35;;;;;;;23.85;10.63;;;10.00;99.90;;;;;;5014806;28;20033;-80
2023/04/07 10:06:01;;;;;;;18.08;10.00;;;10.00;99.90;;;;;;5007465;28;20029;-80
2023/04/07 10:08:27;;;;;;;16.40;9.00;;;10.00;99.90;;;;;;5006157;28;20473;-80
2023/04/07 10:10:53;;;;;;;18.08;9.57;;;10.10;99.90;;;;;;5019257;28;20048;-80
2023/04/07 10:13:19;;;;;;;17.38;9.30;;;10.10;99.90;;;;;;5015039;28;20507;-79
2023/04/07 10:15:44;;;;;;;16.10;9.07;;;10.10;99.90;;;;;;4996404;28;20109;-80
2023/04/07 10:18:10;;;;;;;17.08;8.55;;;10.10;99.90;;;;;;5017410;28;20045;-80
2023/04/07 10:20:38;;;;;;;18.23;8.70;;;10.20;99.90;;;;;;5021012;28;20030;-79
2023/04/07 10:23:09;;;;;;;15.43;9.15;;;10.20;99.90;;;;;;4988405;28;20042;-81
2023/04/07 10:25:36;;;;;;;50.95;10.80;;;10.30;99.90;;;;;;5004926;28;20125;-81
2023/04/07 10:28:05;;;;;;;18.65;9.48;;;10.40;99.90;;;;;;5016772;28;20033;-77
2023/04/07 10:30:31;;;;;;;21.33;9.88;;;10.40;99.90;;;;;;5033478;28;20037;-78
2023/04/07 10:32:57;;;;;;;17.30;9.25;;;10.40;99.90;;;;;;4997382;28;20033;-78
2023/04/07 10:35:23;;;;;;;17.90;9.35;;;10.50;99.90;;;;;;5000697;28;20033;-78
2023/04/07 10:38:07;;;;;;;16.88;9.27;;;10.40;99.90;;;;;;5015236;28;20041;-77
2023/04/07 10:40:33;;;;;;;14.65;8.88;;;10.50;99.90;;;;;;5015094;28;20034;-78
2023/04/07 10:42:59;;;;;;;20.73;10.02;;;10.50;99.90;;;;;;5016245;28;20088;-78
2023/04/07 10:45:45;;;;;;;19.48;9.30;;;10.50;99.90;;;;;;5004633;28;20041;-77
2023/04/07 10:48:13;;;;;;;20.15;10.55;;;10.50;99.90;;;;;;5012411;28;20037;-79
2023/04/07 10:50:39;;;;;;;16.63;10.63;;;10.50;99.90;;;;;;5002469;28;20446;-78
2023/04/07 10:53:08;;;;;;;19.52;10.15;;;10.60;99.90;;;;;;5020398;28;20034;-78
2023/04/07 10:55:35;;;;;;;21.55;11.32;;;10.60;99.90;;;;;;5018229;28;20142;-79
2023/04/07 10:58:22;;;;;;;22.48;10.60;;;10.70;99.90;;;;;;5004367;28;20584;-79
2023/04/07 11:01:03;;;;;;;20.83;10.95;;;10.70;99.90;;;;;;5022720;28;20036;-79
2023/04/07 11:03:30;;;;;;;20.70;10.57;;;10.70;99.90;;;;;;5014613;28;20099;-78
2023/04/07 11:06:22;;;;;;;24.27;12.00;;;10.80;99.90;;;;;;5005296;28;20394;-78
2023/04/07 11:08:49;;;;;;;25.80;11.73;;;10.70;99.90;;;;;;5014750;28;20103;-79
2023/04/07 11:11:15;;;;;;;23.92;12.10;;;10.70;99.90;;;;;;5000119;28;20037;-79
2023/04/07 11:13:42;;;;;;;25.40;12.57;;;10.80;99.90;;;;;;5009212;28;20068;-78
2023/04/07 11:16:08;;;;;;;27.13;12.48;;;10.90;99.90;;;;;;4997340;28;20030;-79
2023/04/07 11:18:34;;;;;;;23.58;13.32;;;10.90;99.90;;;;;;5005460;28;20034;-78
2023/04/07 11:20:59;;;;;;;27.33;12.68;;;11.00;99.90;;;;;;4996224;28;20040;-79
2023/04/07 11:23:26;;;;;;;26.60;11.35;;;11.00;99.90;;;;;;5005133;28;20048;-78
2023/04/07 11:25:53;;;;;;;19.10;11.05;;;11.00;99.90;;;;;;5018980;28;20121;-79
2023/04/07 11:28:18;;;;;;;24.80;11.45;;;11.10;99.90;;;;;;5006092;28;20091;-79
2023/04/07 11:30:45;;;;;;;25.00;12.07;;;11.20;99.90;;;;;;5014309;28;20037;-78
2023/04/07 11:33:15;;;;;;;24.13;11.60;;;11.30;99.90;;;;;;5005018;28;20026;-78
2023/04/07 11:35:51;;;;;;;20.88;12.13;;;11.10;99.90;;;;;;5017367;28;20139;-78
2023/04/07 11:38:17;;;;;;;22.98;11.10;;;11.10;99.90;;;;;;5012866;28;20037;-78
2023/04/07 11:40:43;;;;;;;18.88;10.73;;;11.10;99.90;;;;;;5016575;28;20375;-79
2023/04/07 11:43:16;;;;;;;18.90;10.70;;;11.20;99.90;;;;;;5000706;28;20076;-78
2023/04/07 11:45:42;;;;;;;20.40;11.02;;;11.10;99.90;;;;;;4999658;28;20502;-78
2023/04/07 11:48:29;;;;;;;21.88;11.93;;;11.10;99.90;;;;;;5014959;28;20055;-78
2023/04/07 11:50:55;;;;;;;19.45;9.90;;;11.00;99.90;;;;;;5003383;28;20030;-78
2023/04/07 11:53:34;;;;;;;21.60;11.88;;;11.00;99.90;;;;;;5002874;28;20049;-78
2023/04/07 11:56:06;;;;;;;24.98;11.40;;;11.00;99.90;;;;;;5012442;28;20513;-79
2023/04/07 11:58:32;;;;;;;28.20;11.38;;;11.10;99.90;;;;;;4310960;28;10001031;-79
2023/04/07 12:01:02;;;;;;;26.92;12.98;;;11.20;99.90;;;;;;5015451;28;20046;-78
2023/04/07 12:03:28;;;;;;;23.08;11.73;;;11.20;99.90;;;;;;5001144;28;20052;-78
2023/04/07 12:05:54;;;;;;;22.33;11.65;;;11.30;99.90;;;;;;4995562;28;20037;-77
2023/04/07 12:08:20;;;;;;;19.13;11.88;;;11.20;99.90;;;;;;5000772;28;20395;-78
2023/04/07 12:10:45;;;;;;;18.65;10.98;;;11.20;99.90;;;;;;5020874;28;20045;-78
2023/04/07 12:13:12;;;;;;;19.77;11.82;;;11.30;99.90;;;;;;4997382;28;20034;-79
2023/04/07 12:15:37;;;;;;;20.35;11.45;;;11.30;99.90;;;;;;5009539;28;20787;-78
2023/04/07 12:18:03;;;;;;;21.65;11.20;;;11.30;99.90;;;;;;5003534;28;20029;-78
2023/04/07 12:20:28;;;;;;;21.77;11.60;;;11.30;99.90;;;;;;5011125;28;20030;-78
2023/04/07 12:22:54;;;;;;;20.90;11.00;;;11.30;99.90;;;;;;4998737;28;20049;-78
2023/04/07 12:25:20;;;;;;;20.65;10.32;;;11.40;99.90;;;;;;4998642;28;20033;-78
2023/04/07 12:27:46;;;;;;;19.90;11.07;;;11.40;99.90;;;;;;5018848;28;20030;-78
2023/04/07 12:30:12;;;;;;;23.00;10.75;;;11.30;99.90;;;;;;5001641;28;20240;-77
2023/04/07 12:32:38;;;;;;;16.45;9.10;;;11.40;99.90;;;;;;5008541;28;20073;-78
2023/04/07 12:35:04;;;;;;;15.85;9.48;;;11.40;99.90;;;;;;4992072;28;20040;-77
2023/04/07 12:37:31;;;;;;;14.88;9.23;;;11.40;99.90;;;;;;5002824;28;20370;-78